createdAt,value
2022-10-01T00:00:48.279Z,7.82
2022-10-01T00:03:51.616Z,6.07
2022-10-01T00:06:55.051Z,8.05
2022-10-01T00:09:58.393Z,9.48
2022-10-01T00:13:02.038Z,7.55
2022-10-01T00:16:10.913Z,7.65
2022-10-01T00:19:15.148Z,6.93
2022-10-01T00:22:19.193Z,9.05
2022-10-01T00:25:25.491Z,8.20
2022-10-01T00:28:29.608Z,7.35
2022-10-01T00:31:33.725Z,7.15
2022-10-01T00:34:37.321Z,10.20
2022-10-01T00:37:42.660Z,8.65
2022-10-01T00:40:46.083Z,8.05
2022-10-01T00:43:55.600Z,9.43
2022-10-01T00:47:16.142Z,7.93
2022-10-01T00:50:34.943Z,7.23
2022-10-01T00:53:38.978Z,8.50
2022-10-01T00:56:43.528Z,8.60
2022-10-01T00:59:48.105Z,9.02
2022-10-01T01:02:51.763Z,7.90
2022-10-01T01:05:55.095Z,9.10
2022-10-01T01:08:58.579Z,9.05
2022-10-01T01:12:16.958Z,15.13
2022-10-01T01:15:28.887Z,9.57
2022-10-01T01:18:52.924Z,9.25
2022-10-01T01:22:02.160Z,7.83
2022-10-01T01:25:16.878Z,8.13
2022-10-01T01:28:31.695Z,8.65
2022-10-01T01:31:41.875Z,11.07
2022-10-01T01:34:50.272Z,8.45
2022-10-01T01:37:59.184Z,8.63
2022-10-01T01:41:04.006Z,9.20
2022-10-01T01:44:12.330Z,9.98
2022-10-01T01:47:19.316Z,11.48
2022-10-01T01:50:25.674Z,10.05
2022-10-01T01:53:32.243Z,10.17
2022-10-01T01:56:35.955Z,10.95
2022-10-01T01:59:40.170Z,9.35
2022-10-01T02:02:50.295Z,9.93
2022-10-01T02:06:18.032Z,9.20
2022-10-01T02:09:50.403Z,8.97
2022-10-01T02:12:56.509Z,9.68
2022-10-01T02:16:19.125Z,12.43
2022-10-01T02:19:33.779Z,8.25
2022-10-01T02:22:57.112Z,10.02
2022-10-01T02:26:05.941Z,8.90
2022-10-01T02:29:13.261Z,10.52
2022-10-01T02:32:18.625Z,9.20
2022-10-01T02:35:22.762Z,10.35
2022-10-01T02:38:27.918Z,8.55
2022-10-01T02:41:37.241Z,9.77
2022-10-01T02:44:45.081Z,10.45
2022-10-01T02:47:54.911Z,10.55
2022-10-01T02:51:13.629Z,11.82
2022-10-01T02:54:29.631Z,11.55
2022-10-01T02:57:33.247Z,12.57
2022-10-01T03:00:36.634Z,9.20
2022-10-01T03:03:42.052Z,10.50
2022-10-01T03:06:46.173Z,9.95
2022-10-01T03:09:49.991Z,11.70
2022-10-01T03:12:53.349Z,10.27
2022-10-01T03:15:56.724Z,12.07
2022-10-01T03:19:01.630Z,10.45
2022-10-01T03:22:05.221Z,10.13
2022-10-01T03:25:09.030Z,9.20
2022-10-01T03:28:13.487Z,10.53
2022-10-01T03:31:16.993Z,14.30
2022-10-01T03:34:20.824Z,9.70
2022-10-01T03:37:24.174Z,10.48
2022-10-01T03:40:27.603Z,10.45
2022-10-01T03:43:31.009Z,9.50
2022-10-01T03:46:34.541Z,10.50
2022-10-01T03:49:38.317Z,11.68
2022-10-01T03:52:42.692Z,12.95
2022-10-01T03:55:45.844Z,11.35
2022-10-01T03:58:49.048Z,10.43
2022-10-01T04:01:52.249Z,10.60
2022-10-01T04:04:55.438Z,11.07
2022-10-01T04:07:59.718Z,13.68
2022-10-01T04:11:02.890Z,11.68
2022-10-01T04:14:06.202Z,9.33
2022-10-01T04:17:09.297Z,13.25
2022-10-01T04:20:12.432Z,15.60
2022-10-01T04:23:15.914Z,12.75
2022-10-01T04:26:19.194Z,12.65
2022-10-01T04:29:22.588Z,10.83
2022-10-01T04:32:25.700Z,11.25
2022-10-01T04:35:29.607Z,11.68
2022-10-01T04:38:32.889Z,13.35
2022-10-01T04:41:36.153Z,15.75
2022-10-01T04:44:39.669Z,14.57
2022-10-01T04:47:59.742Z,13.80
2022-10-01T04:51:02.956Z,16.05
2022-10-01T04:54:06.192Z,13.10
2022-10-01T04:57:09.429Z,13.80
2022-10-01T05:00:15.961Z,11.00
2022-10-01T05:03:19.203Z,14.70
2022-10-01T05:06:22.307Z,14.50
2022-10-01T05:09:35.147Z,11.20
2022-10-01T05:12:41.441Z,9.82
2022-10-01T05:15:44.855Z,11.60
2022-10-01T05:18:48.865Z,8.23
2022-10-01T05:21:53.736Z,11.82
2022-10-01T05:25:00.106Z,11.52
2022-10-01T05:28:06.466Z,13.73
2022-10-01T05:31:10.291Z,14.13
2022-10-01T05:34:14.189Z,14.18
2022-10-01T05:37:19.522Z,10.30
2022-10-01T05:40:27.630Z,11.68
2022-10-01T05:43:31.383Z,12.13
2022-10-01T05:46:34.647Z,12.93
2022-10-01T05:49:39.613Z,10.18
2022-10-01T05:52:53.066Z,13.18
2022-10-01T05:55:56.135Z,11.60
2022-10-01T05:58:59.537Z,18.77
2022-10-01T06:02:04.234Z,14.50
2022-10-01T06:05:07.769Z,16.20
2022-10-01T06:08:10.908Z,15.48
2022-10-01T06:11:14.053Z,16.92
2022-10-01T06:14:17.680Z,11.50
2022-10-01T06:17:20.835Z,12.90
2022-10-01T06:20:24.432Z,14.88
2022-10-01T06:23:27.931Z,17.23
2022-10-01T06:26:31.265Z,12.20
2022-10-01T06:29:34.438Z,12.23
2022-10-01T06:32:37.609Z,9.13
2022-10-01T06:35:47.195Z,12.80
2022-10-01T06:38:50.636Z,9.48
2022-10-01T06:41:53.702Z,11.52
2022-10-01T06:44:56.939Z,12.02
2022-10-01T06:48:03.102Z,10.40
2022-10-01T06:51:06.604Z,12.93
2022-10-01T06:54:10.503Z,13.95
2022-10-01T06:57:13.644Z,11.00
2022-10-01T07:00:17.006Z,6.90
2022-10-01T07:03:21.802Z,10.17
2022-10-01T07:06:27.741Z,10.55
2022-10-01T07:09:30.819Z,16.20
2022-10-01T07:12:35.586Z,13.70
2022-10-01T07:15:39.133Z,11.10
2022-10-01T07:18:42.475Z,8.20
2022-10-01T07:21:48.618Z,9.68
2022-10-01T07:24:52.555Z,9.13
2022-10-01T07:28:00.770Z,8.18
2022-10-01T07:31:12.737Z,8.95
2022-10-01T07:34:15.952Z,11.67
2022-10-01T07:37:19.291Z,12.38
2022-10-01T07:40:22.580Z,13.77
2022-10-01T07:43:25.755Z,11.60
2022-10-01T07:46:32.709Z,11.65
2022-10-01T07:49:38.068Z,13.00
2022-10-01T07:52:43.983Z,10.75
2022-10-01T07:55:47.158Z,11.45
2022-10-01T07:58:54.802Z,12.02
2022-10-01T08:01:58.548Z,16.15
2022-10-01T08:05:20.235Z,11.03
2022-10-01T08:08:23.715Z,14.07
2022-10-01T08:11:26.807Z,19.65
2022-10-01T08:14:30.483Z,16.75
2022-10-01T08:17:34.828Z,13.15
2022-10-01T08:20:41.616Z,14.27
2022-10-01T08:23:44.689Z,11.88
2022-10-01T08:26:58.225Z,10.65
2022-10-01T08:30:01.399Z,12.75
2022-10-01T08:33:04.584Z,13.23
2022-10-01T08:36:08.502Z,12.03
2022-10-01T08:39:13.601Z,10.07
2022-10-01T08:42:34.970Z,12.25
2022-10-01T08:45:51.498Z,12.68
2022-10-01T08:48:57.103Z,12.73
2022-10-01T08:52:18.844Z,12.03
2022-10-01T08:55:26.196Z,10.13
2022-10-01T08:58:41.116Z,12.43
2022-10-01T09:01:44.406Z,16.83
2022-10-01T09:04:48.963Z,9.75
2022-10-01T09:07:52.015Z,10.60
2022-10-01T09:11:04.612Z,10.68
2022-10-01T09:14:10.812Z,9.68
2022-10-01T09:17:20.343Z,7.47
2022-10-01T09:20:29.145Z,8.98
2022-10-01T09:23:43.624Z,8.27
2022-10-01T09:26:51.460Z,10.25
2022-10-01T09:30:09.515Z,10.60
2022-10-01T09:33:17.220Z,10.25
2022-10-01T09:36:55.471Z,11.88
2022-10-01T09:40:21.300Z,9.17
2022-10-01T09:43:36.889Z,11.20
2022-10-01T09:46:40.036Z,16.13
2022-10-01T09:49:46.345Z,8.20
2022-10-01T09:52:51.766Z,8.27
2022-10-01T09:56:03.734Z,7.63
2022-10-01T09:59:14.826Z,9.40
2022-10-01T10:02:26.890Z,9.82
2022-10-01T10:05:39.881Z,11.80
2022-10-01T10:08:46.073Z,10.73
2022-10-01T10:11:49.459Z,12.47
2022-10-01T10:14:55.574Z,11.88
2022-10-01T10:18:10.188Z,9.80
2022-10-01T10:21:18.142Z,11.32
2022-10-01T10:24:31.670Z,8.57
2022-10-01T10:27:36.279Z,9.43
2022-10-01T10:30:43.295Z,9.10
2022-10-01T10:33:58.739Z,6.85
2022-10-01T10:37:07.254Z,9.88
2022-10-01T10:40:20.139Z,8.48
2022-10-01T10:43:26.935Z,7.00
2022-10-01T10:46:35.925Z,8.32
2022-10-01T10:49:47.780Z,11.02
2022-10-01T10:52:51.033Z,11.38
2022-10-01T10:56:02.458Z,10.57
2022-10-01T10:59:08.610Z,13.97
2022-10-01T11:02:21.279Z,11.55
2022-10-01T11:05:30.044Z,9.10
2022-10-01T11:08:35.720Z,7.95
2022-10-01T11:11:54.053Z,8.10
2022-10-01T11:15:43.299Z,9.23
2022-10-01T11:19:18.413Z,15.45
2022-10-01T11:22:56.208Z,10.18
2022-10-01T11:26:07.268Z,11.43
2022-10-01T11:29:25.036Z,10.70
2022-10-01T11:32:54.936Z,9.00
2022-10-01T11:36:17.053Z,6.80
2022-10-01T11:39:23.332Z,9.60
2022-10-01T11:42:35.511Z,7.80
2022-10-01T11:45:45.697Z,11.73
2022-10-01T11:48:53.532Z,7.40
2022-10-01T11:52:16.084Z,13.18
2022-10-01T11:55:49.674Z,8.32
2022-10-01T11:59:17.833Z,10.63
2022-10-01T12:02:46.059Z,9.95
2022-10-01T12:05:51.322Z,12.50
2022-10-01T12:09:07.541Z,12.23
2022-10-01T12:12:22.718Z,11.15
2022-10-01T12:15:34.085Z,9.98
2022-10-01T12:19:06.253Z,12.02
2022-10-01T12:22:24.544Z,9.27
2022-10-01T12:25:59.637Z,10.05
2022-10-01T12:29:19.691Z,11.27
2022-10-01T12:32:50.405Z,9.02
2022-10-01T12:35:59.584Z,10.82
2022-10-01T12:39:13.574Z,9.27
2022-10-01T12:42:48.867Z,10.57
2022-10-01T12:45:57.604Z,10.00
2022-10-01T12:49:09.908Z,11.65
2022-10-01T12:52:45.460Z,11.20
2022-10-01T12:55:54.862Z,8.23
2022-10-01T12:59:16.885Z,6.55
2022-10-01T13:02:32.885Z,5.18
2022-10-01T13:05:54.912Z,10.38
2022-10-01T13:08:57.978Z,14.45
2022-10-01T13:12:32.992Z,13.73
2022-10-01T13:15:39.224Z,14.10
2022-10-01T13:19:00.368Z,9.82
2022-10-01T13:22:14.728Z,10.60
2022-10-01T13:25:45.348Z,11.40
2022-10-01T13:29:00.590Z,13.60
2022-10-01T13:32:25.943Z,11.90
2022-10-01T13:35:36.550Z,10.52
2022-10-01T13:38:42.749Z,7.68
2022-10-01T13:41:45.951Z,7.97
2022-10-01T13:44:58.577Z,11.13
2022-10-01T13:48:16.561Z,9.60
2022-10-01T13:51:20.339Z,8.80
2022-10-01T13:54:27.754Z,8.77
2022-10-01T13:57:34.980Z,9.13
2022-10-01T14:00:49.304Z,9.30
2022-10-01T14:04:01.425Z,8.80
2022-10-01T14:07:22.111Z,7.97
2022-10-01T14:10:34.884Z,8.88
2022-10-01T14:14:08.201Z,10.50
2022-10-01T14:17:12.785Z,11.13
2022-10-01T14:20:25.518Z,8.52
2022-10-01T14:23:43.296Z,9.18
2022-10-01T14:27:13.739Z,7.07
2022-10-01T14:30:25.247Z,6.43
2022-10-01T14:33:49.883Z,9.03
2022-10-01T14:36:55.632Z,7.05
2022-10-01T14:40:17.913Z,5.65
2022-10-01T14:43:29.804Z,5.43
2022-10-01T14:46:36.851Z,9.18
2022-10-01T14:49:40.276Z,7.60
2022-10-01T14:52:48.244Z,12.15
2022-10-01T14:55:58.361Z,7.75
2022-10-01T14:59:05.387Z,7.53
2022-10-01T15:02:20.584Z,6.38
2022-10-01T15:05:33.106Z,8.10
2022-10-01T15:08:50.738Z,6.18
2022-10-01T15:11:54.134Z,8.65
2022-10-01T15:14:57.298Z,8.50
2022-10-01T15:18:03.947Z,6.57
2022-10-01T15:21:07.544Z,5.90
2022-10-01T15:24:38.051Z,6.45
2022-10-01T15:27:41.777Z,6.97
2022-10-01T15:30:45.284Z,6.40
2022-10-01T15:33:48.725Z,5.28
2022-10-01T15:36:53.711Z,5.27
2022-10-01T15:39:57.565Z,5.43
2022-10-01T15:43:12.284Z,5.47
2022-10-01T15:46:29.248Z,6.10
2022-10-01T15:49:33.407Z,6.55
2022-10-01T15:52:53.263Z,4.97
2022-10-01T15:55:59.492Z,6.82
2022-10-01T15:59:12.667Z,6.00
2022-10-01T16:02:29.621Z,5.45
2022-10-01T16:05:45.791Z,6.80
2022-10-01T16:09:19.347Z,4.13
2022-10-01T16:12:23.793Z,5.03
2022-10-01T16:15:31.457Z,4.88
2022-10-01T16:18:37.380Z,4.70
2022-10-01T16:21:41.528Z,5.32
2022-10-01T16:24:48.909Z,5.43
2022-10-01T16:27:58.208Z,5.05
2022-10-01T16:31:03.943Z,6.05
2022-10-01T16:34:14.903Z,5.07
2022-10-01T16:37:18.499Z,6.22
2022-10-01T16:40:24.747Z,5.57
2022-10-01T16:43:27.866Z,5.80
2022-10-01T16:46:31.750Z,6.38
2022-10-01T16:49:35.256Z,6.10
2022-10-01T16:52:38.396Z,4.20
2022-10-01T16:55:42.587Z,4.73
2022-10-01T16:58:46.014Z,4.60
2022-10-01T17:01:55.732Z,5.78
2022-10-01T17:05:00.824Z,5.15
2022-10-01T17:08:10.961Z,5.50
2022-10-01T17:11:14.208Z,6.17
2022-10-01T17:14:18.744Z,4.78
2022-10-01T17:17:21.832Z,6.97
2022-10-01T17:20:30.653Z,6.30
2022-10-01T17:23:35.643Z,7.35
2022-10-01T17:26:45.292Z,5.37
2022-10-01T17:29:48.426Z,7.85
2022-10-01T17:32:51.701Z,5.07
2022-10-01T17:35:55.866Z,7.90
2022-10-01T17:38:59.040Z,6.70
2022-10-01T17:42:02.137Z,5.60
2022-10-01T17:45:08.587Z,5.07
2022-10-01T17:48:11.896Z,5.85
2022-10-01T17:51:15.747Z,8.25
2022-10-01T17:54:19.877Z,6.57
2022-10-01T17:57:23.216Z,5.30
2022-10-01T18:00:26.453Z,6.82
2022-10-01T18:03:29.566Z,4.55
2022-10-01T18:06:33.238Z,4.75
2022-10-01T18:09:36.647Z,7.78
2022-10-01T18:12:40.134Z,4.20
2022-10-01T18:15:43.266Z,5.80
2022-10-01T18:22:14.282Z,7.32
2022-10-01T18:25:19.414Z,6.38
2022-10-01T18:28:23.437Z,7.13
2022-10-01T18:31:33.391Z,7.05
2022-10-01T18:34:59.314Z,7.00
2022-10-01T18:38:25.517Z,6.47
2022-10-01T18:41:38.510Z,7.75
2022-10-01T18:44:41.636Z,8.23
2022-10-01T18:48:19.931Z,7.32
2022-10-01T18:51:51.895Z,6.95
2022-10-01T18:55:33.121Z,8.43
2022-10-01T18:58:45.255Z,8.57
2022-10-01T19:02:23.616Z,8.33
2022-10-01T19:05:53.236Z,8.38
2022-10-01T19:09:11.349Z,8.60
2022-10-01T19:13:02.575Z,8.10
2022-10-01T19:16:27.042Z,10.57
2022-10-01T19:19:35.559Z,9.97
2022-10-01T19:23:06.711Z,12.88
2022-10-01T19:26:38.825Z,12.35
2022-10-01T19:30:09.350Z,13.95
2022-10-01T19:33:14.990Z,9.80
2022-10-01T19:36:32.409Z,13.33
2022-10-01T19:39:39.569Z,11.18
2022-10-01T19:43:07.864Z,12.05
2022-10-01T19:46:12.912Z,11.20
2022-10-01T19:49:38.261Z,11.48
2022-10-01T19:52:45.100Z,10.37
2022-10-01T19:55:51.499Z,10.95
2022-10-01T19:58:54.664Z,12.05
2022-10-01T20:02:18.844Z,13.35
2022-10-01T20:05:46.967Z,11.10
2022-10-01T20:08:55.489Z,12.57
2022-10-01T20:12:20.769Z,12.77
2022-10-01T20:15:34.466Z,8.63
2022-10-01T20:18:53.618Z,11.50
2022-10-01T20:22:52.542Z,14.05
2022-10-01T20:26:01.397Z,13.23
2022-10-01T20:29:28.673Z,11.48
2022-10-01T20:32:49.091Z,17.92
2022-10-01T20:36:04.756Z,12.43
2022-10-01T20:39:31.051Z,12.73
2022-10-01T20:42:46.784Z,15.17
2022-10-01T20:45:53.612Z,16.77
2022-10-01T20:49:12.098Z,13.40
2022-10-01T20:52:37.854Z,14.77
2022-10-01T20:56:07.108Z,11.73
2022-10-01T20:59:19.258Z,13.47
2022-10-01T21:02:33.732Z,13.05
2022-10-01T21:06:12.514Z,12.13
2022-10-01T21:09:43.828Z,8.93
2022-10-01T21:12:55.804Z,9.18
2022-10-01T21:16:17.879Z,8.60
2022-10-01T21:19:39.737Z,6.97
2022-10-01T21:23:08.432Z,6.93
2022-10-01T21:26:29.534Z,7.88
2022-10-01T21:29:34.030Z,7.15
2022-10-01T21:32:58.844Z,6.63
2022-10-01T21:36:31.110Z,5.95
2022-10-01T21:39:42.676Z,5.00
2022-10-01T21:43:11.940Z,5.35
2022-10-01T21:46:34.150Z,6.15
2022-10-01T21:49:56.194Z,7.07
2022-10-01T21:53:13.937Z,6.32
2022-10-01T21:56:55.085Z,6.38
2022-10-01T22:00:28.539Z,8.00
2022-10-01T22:03:51.236Z,8.68
2022-10-01T22:07:09.460Z,9.17
2022-10-01T22:10:25.955Z,9.02
2022-10-01T22:13:35.812Z,9.10
2022-10-01T22:16:45.540Z,7.68
2022-10-01T22:19:56.868Z,7.63
2022-10-01T22:23:11.528Z,8.10
2022-10-01T22:26:23.032Z,7.35
2022-10-01T22:29:30.260Z,10.65
2022-10-01T22:32:47.119Z,6.53
2022-10-01T22:36:02.262Z,7.35
2022-10-01T22:39:11.827Z,8.37
2022-10-01T22:42:21.301Z,7.70
2022-10-01T22:45:32.280Z,6.97
2022-10-01T22:49:02.083Z,7.93
2022-10-01T22:52:48.032Z,6.63
2022-10-01T22:55:55.233Z,7.03
2022-10-01T22:59:08.148Z,9.80
2022-10-01T23:02:11.558Z,8.18
2022-10-01T23:05:26.934Z,6.60
2022-10-01T23:08:36.663Z,7.35
2022-10-01T23:11:51.267Z,6.30
2022-10-01T23:15:10.780Z,7.28
2022-10-01T23:18:34.395Z,6.72
2022-10-01T23:22:09.104Z,6.05
2022-10-01T23:25:44.157Z,11.88
2022-10-01T23:29:02.412Z,6.17
2022-10-01T23:32:43.625Z,5.55
2022-10-01T23:36:03.913Z,6.05
2022-10-01T23:39:35.430Z,4.43
2022-10-01T23:42:48.117Z,4.57
2022-10-01T23:46:30.109Z,5.50
2022-10-01T23:49:40.058Z,4.63
2022-10-01T23:52:59.824Z,4.60
2022-10-01T23:56:38.941Z,5.03
2022-10-01T23:59:47.461Z,4.50
